Time;durP1;ratioP1;P1;durP2;ratioP2;P2;SDS_P1;SDS_P2;PMS_P1;PMS_P2;Temp;Humidity;BMP_temperature;BMP_pressure;BME280_temperature;BME280_humidity;BME280_pressure;Samples;Min_cycle;Max_cycle;Signal;HPM_P1;HPM_P2
2023/05/03 00:01:08;;;;;;;6.13;1.85;;;;;;;;;;5015505;28;93718;-67
2023/05/03 00:03:36;;;;;;;6.07;2.13;;;;;;;;;;5044717;27;92554;-66
2023/05/03 00:06:12;;;;;;;4.45;1.80;;;;;;;;;;5037217;27;93966;-66
2023/05/03 00:08:39;;;;;;;3.20;1.70;;;;;;;;;;5052451;27;93224;-67
2023/05/03 00:11:06;;;;;;;3.53;1.70;;;;;;;;;;5025853;27;94573;-66
2023/05/03 00:13:32;;;;;;;7.15;2.10;;;;;;;;;;5032752;27;95732;-67
2023/05/03 00:15:58;;;;;;;3.22;1.80;;;;;;;;;;5045347;27;92852;-67
2023/05/03 00:18:25;;;;;;;5.53;1.63;;;;;;;;;;5028504;27;94551;-67
2023/05/03 00:20:53;;;;;;;3.03;2.28;;;;;;;;;;5036927;27;93588;-67
2023/05/03 00:23:20;;;;;;;10.43;1.98;;;;;;;;;;5032091;27;92658;-66
2023/05/03 00:25:50;;;;;;;4.80;2.28;;;;;;;;;;5036648;27;94124;-67
2023/05/03 00:28:16;;;;;;;11.18;2.13;;;;;;;;;;5015975;28;92486;-67
2023/05/03 00:30:43;;;;;;;7.35;1.92;;;;;;;;;;5032867;27;93218;-67
2023/05/03 00:33:09;;;;;;;4.20;1.77;;;;;;;;;;5019029;28;93481;-66
2023/05/03 00:35:36;;;;;;;2.10;1.70;;;;;;;;;;5015441;28;92350;-67
2023/05/03 00:38:02;;;;;;;4.75;2.00;;;;;;;;;;5032523;28;94885;-66
2023/05/03 00:40:29;;;;;;;4.10;1.67;;;;;;;;;;5033993;27;94069;-66
2023/05/03 00:42:55;;;;;;;4.50;1.80;;;;;;;;;;5033671;28;92414;-67
2023/05/03 00:45:22;;;;;;;6.28;1.77;;;;;;;;;;5033583;28;93461;-67
2023/05/03 00:47:48;;;;;;;3.00;1.88;;;;;;;;;;5036905;28;94721;-66
2023/05/03 00:50:15;;;;;;;1.92;1.70;;;;;;;;;;5034185;28;94274;-67
2023/05/03 00:52:41;;;;;;;2.75;1.63;;;;;;;;;;5033550;28;93380;-67
2023/05/03 00:55:08;;;;;;;5.55;1.92;;;;;;;;;;5034342;28;91680;-66
2023/05/03 00:57:34;;;;;;;6.13;2.13;;;;;;;;;;5033734;27;92439;-67
2023/05/03 01:00:01;;;;;;;2.92;1.88;;;;;;;;;;5032637;28;94395;-66
2023/05/03 01:02:28;;;;;;;3.30;1.67;;;;;;;;;;5029493;27;95348;-67
2023/05/03 01:04:54;;;;;;;12.80;1.63;;;;;;;;;;5044730;27;96464;-66
2023/05/03 01:07:32;;;;;;;2.60;1.58;;;;;;;;;;5042666;27;93392;-66
2023/05/03 01:10:03;;;;;;;6.03;2.13;;;;;;;;;;5035264;27;92515;-67
2023/05/03 01:12:48;;;;;;;7.65;2.13;;;;;;;;;;5032395;28;93508;-66
2023/05/03 01:15:19;;;;;;;4.07;1.63;;;;;;;;;;5032951;27;92421;-67
2023/05/03 01:17:50;;;;;;;3.55;1.80;;;;;;;;;;5055531;27;93145;-66
2023/05/03 01:20:18;;;;;;;5.63;1.75;;;;;;;;;;5039110;27;93762;-67
2023/05/03 01:22:56;;;;;;;3.58;1.63;;;;;;;;;;5036100;27;92468;-66
2023/05/03 01:25:24;;;;;;;7.22;2.10;;;;;;;;;;5050854;27;94336;-67
2023/05/03 01:27:50;;;;;;;5.43;2.28;;;;;;;;;;5040079;27;96315;-67
2023/05/03 01:30:17;;;;;;;2.65;1.73;;;;;;;;;;5036431;27;92533;-66
2023/05/03 01:32:46;;;;;;;2.70;1.45;;;;;;;;;;5034060;28;93035;-66
2023/05/03 01:35:29;;;;;;;2.05;1.52;;;;;;;;;;5045168;27;92478;-65
2023/05/03 01:37:56;;;;;;;5.93;1.60;;;;;;;;;;5035577;28;93474;-66
2023/05/03 01:40:23;;;;;;;3.28;1.88;;;;;;;;;;5029177;28;93446;-66
2023/05/03 01:42:50;;;;;;;4.75;1.80;;;;;;;;;;5044435;27;92531;-66
2023/05/03 01:45:17;;;;;;;2.13;1.67;;;;;;;;;;5038124;27;93311;-66
2023/05/03 01:47:43;;;;;;;10.43;2.35;;;;;;;;;;5033726;27;93549;-66
2023/05/03 01:50:09;;;;;;;4.10;1.80;;;;;;;;;;5036826;27;92507;-67
2023/05/03 01:52:36;;;;;;;6.40;2.15;;;;;;;;;;5035785;28;94816;-66
2023/05/03 01:55:02;;;;;;;3.28;1.80;;;;;;;;;;5040757;28;94440;-66
2023/05/03 01:57:29;;;;;;;3.30;1.60;;;;;;;;;;5052625;27;94597;-67
2023/05/03 01:59:55;;;;;;;9.75;2.42;;;;;;;;;;5033343;27;93327;-66
2023/05/03 02:02:21;;;;;;;6.35;1.55;;;;;;;;;;5030447;27;92515;-67
2023/05/03 02:04:48;;;;;;;5.68;1.92;;;;;;;;;;5041859;27;92958;-66
2023/05/03 02:07:14;;;;;;;2.72;1.73;;;;;;;;;;5047850;27;93545;-67
2023/05/03 02:09:41;;;;;;;4.25;2.08;;;;;;;;;;5049052;27;91811;-69
2023/05/03 02:12:08;;;;;;;5.88;2.10;;;;;;;;;;5045519;27;93845;-68
2023/05/03 02:14:35;;;;;;;8.75;2.33;;;;;;;;;;5036512;28;93562;-69
2023/05/03 02:17:01;;;;;;;2.78;1.88;;;;;;;;;;5029859;27;95176;-69
2023/05/03 02:19:28;;;;;;;4.03;1.85;;;;;;;;;;5032132;28;93415;-68
2023/05/03 02:21:55;;;;;;;4.47;1.77;;;;;;;;;;5049298;27;92496;-68
2023/05/03 02:24:22;;;;;;;12.57;3.50;;;;;;;;;;5037066;27;93685;-68
2023/05/03 02:26:48;;;;;;;6.85;1.92;;;;;;;;;;5040076;27;93942;-68
2023/05/03 02:29:15;;;;;;;4.50;1.90;;;;;;;;;;5047661;27;92846;-68
2023/05/03 02:31:41;;;;;;;4.18;1.63;;;;;;;;;;5042761;27;94176;-68
2023/05/03 02:34:08;;;;;;;11.82;2.55;;;;;;;;;;5035239;28;92827;-68
2023/05/03 02:36:34;;;;;;;3.50;1.65;;;;;;;;;;5049926;27;92454;-67
2023/05/03 02:39:01;;;;;;;4.15;2.10;;;;;;;;;;5040333;27;93616;-67
2023/05/03 02:41:27;;;;;;;5.95;1.90;;;;;;;;;;5029937;27;94913;-68
2023/05/03 02:43:53;;;;;;;4.20;2.10;;;;;;;;;;5053402;27;96808;-68
2023/05/03 02:46:20;;;;;;;4.60;1.98;;;;;;;;;;5034506;28;93745;-67
2023/05/03 02:48:46;;;;;;;5.65;2.20;;;;;;;;;;5035277;28;92611;-68
2023/05/03 02:51:12;;;;;;;2.97;2.10;;;;;;;;;;5036193;28;94211;-68
2023/05/03 02:53:39;;;;;;;3.20;1.95;;;;;;;;;;5037585;27;94464;-68
2023/05/03 02:56:06;;;;;;;3.65;1.73;;;;;;;;;;5044672;27;92436;-68
2023/05/03 02:58:32;;;;;;;5.22;2.10;;;;;;;;;;5025449;28;93058;-67
2023/05/03 03:00:58;;;;;;;3.97;1.63;;;;;;;;;;5018059;28;92649;-67
2023/05/03 03:03:25;;;;;;;6.50;2.10;;;;;;;;;;5046120;27;94087;-68
2023/05/03 03:05:52;;;;;;;3.17;1.92;;;;;;;;;;5041513;27;95640;-68
2023/05/03 03:08:18;;;;;;;4.00;2.28;;;;;;;;;;5048317;27;92444;-67
2023/05/03 03:10:44;;;;;;;3.17;2.00;;;;;;;;;;5034503;27;92947;-68
2023/05/03 03:13:11;;;;;;;4.10;2.22;;;;;;;;;;5051733;27;94615;-67
2023/05/03 03:15:37;;;;;;;6.07;2.00;;;;;;;;;;5036320;27;92427;-67
2023/05/03 03:18:03;;;;;;;5.97;3.20;;;;;;;;;;5035941;27;93060;-68
2023/05/03 03:20:30;;;;;;;14.77;2.45;;;;;;;;;;5045540;27;93691;-67
2023/05/03 03:22:56;;;;;;;6.82;2.30;;;;;;;;;;5042921;27;93261;-67
2023/05/03 03:25:22;;;;;;;5.22;2.00;;;;;;;;;;5024355;28;93508;-68
2023/05/03 03:27:49;;;;;;;5.97;2.10;;;;;;;;;;5039171;27;92456;-67
2023/05/03 03:30:15;;;;;;;4.25;2.00;;;;;;;;;;5042555;27;94876;-68
2023/05/03 03:32:41;;;;;;;3.85;2.30;;;;;;;;;;5041813;27;94464;-68
2023/05/03 03:35:08;;;;;;;18.27;1.98;;;;;;;;;;5041781;27;93702;-68
2023/05/03 03:37:35;;;;;;;1.98;1.73;;;;;;;;;;5042588;27;94059;-68
2023/05/03 03:40:01;;;;;;;4.20;2.13;;;;;;;;;;5039576;27;94445;-68
2023/05/03 03:42:28;;;;;;;4.45;2.17;;;;;;;;;;5056497;27;92409;-67
2023/05/03 03:44:54;;;;;;;4.00;1.88;;;;;;;;;;5037067;27;94603;-68
2023/05/03 03:47:20;;;;;;;4.22;2.30;;;;;;;;;;5033728;27;91763;-68
2023/05/03 03:49:47;;;;;;;3.80;2.20;;;;;;;;;;5039394;27;93495;-68
2023/05/03 03:52:13;;;;;;;8.00;2.20;;;;;;;;;;5052969;27;93545;-68
2023/05/03 03:54:40;;;;;;;9.13;1.70;;;;;;;;;;5037856;27;97148;-68
2023/05/03 03:57:06;;;;;;;5.07;1.83;;;;;;;;;;5049050;27;95331;-68
2023/05/03 03:59:32;;;;;;;5.80;2.10;;;;;;;;;;5049627;27;94292;-68
2023/05/03 04:01:59;;;;;;;7.90;2.13;;;;;;;;;;5026557;28;92590;-68
2023/05/03 04:04:25;;;;;;;1.73;1.60;;;;;;;;;;5026137;27;92474;-68
2023/05/03 04:06:51;;;;;;;5.47;1.98;;;;;;;;;;5036025;27;92455;-67
2023/05/03 04:09:18;;;;;;;3.38;2.05;;;;;;;;;;5033140;28;93214;-67
2023/05/03 04:11:45;;;;;;;4.00;1.92;;;;;;;;;;5052115;27;92624;-68
2023/05/03 04:14:11;;;;;;;9.15;2.25;;;;;;;;;;5030795;27;92893;-67
2023/05/03 04:16:37;;;;;;;5.22;1.95;;;;;;;;;;5041340;27;93107;-67
2023/05/03 04:19:04;;;;;;;3.65;1.90;;;;;;;;;;5030272;28;96945;-68
2023/05/03 04:21:31;;;;;;;5.05;2.33;;;;;;;;;;5032479;27;92878;-67
2023/05/03 04:23:57;;;;;;;3.90;2.00;;;;;;;;;;5042526;27;94179;-67
2023/05/03 04:26:24;;;;;;;4.55;2.17;;;;;;;;;;5046715;27;93153;-67
2023/05/03 04:28:57;;;;;;;5.55;2.17;;;;;;;;;;5047102;27;93875;-67
2023/05/03 04:31:24;;;;;;;2.60;1.83;;;;;;;;;;5037903;27;94596;-67
2023/05/03 04:33:50;;;;;;;5.93;2.35;;;;;;;;;;5043201;27;92511;-67
2023/05/03 04:36:17;;;;;;;4.25;2.00;;;;;;;;;;5034307;27;94061;-68
2023/05/03 04:38:43;;;;;;;9.40;2.38;;;;;;;;;;5033483;28;94064;-68
2023/05/03 04:41:10;;;;;;;3.50;2.30;;;;;;;;;;5048461;27;92429;-68
2023/05/03 04:43:39;;;;;;;3.92;1.92;;;;;;;;;;5052914;27;94867;-68
2023/05/03 04:46:05;;;;;;;7.55;2.20;;;;;;;;;;5054103;27;92762;-68
2023/05/03 04:48:31;;;;;;;7.45;3.00;;;;;;;;;;5046819;27;93200;-67
2023/05/03 04:50:58;;;;;;;4.85;2.15;;;;;;;;;;5035632;28;93365;-67
2023/05/03 04:53:24;;;;;;;4.00;2.30;;;;;;;;;;5036243;27;92865;-69
2023/05/03 04:55:51;;;;;;;5.32;2.40;;;;;;;;;;5036887;28;92770;-67
2023/05/03 04:58:17;;;;;;;4.53;2.22;;;;;;;;;;5053967;27;94861;-67
2023/05/03 05:00:44;;;;;;;2.67;2.47;;;;;;;;;;5045487;27;91919;-67
2023/05/03 05:03:10;;;;;;;4.10;2.30;;;;;;;;;;5057957;27;93284;-67
2023/05/03 05:05:37;;;;;;;6.35;3.08;;;;;;;;;;5054807;27;93119;-67
2023/05/03 05:08:03;;;;;;;5.60;2.33;;;;;;;;;;5046512;27;95568;-67
2023/05/03 05:10:30;;;;;;;5.15;2.22;;;;;;;;;;5035401;28;93528;-67
2023/05/03 05:12:57;;;;;;;3.63;2.72;;;;;;;;;;5035880;28;92585;-67
2023/05/03 05:15:23;;;;;;;4.55;2.50;;;;;;;;;;5026970;28;94110;-67
2023/05/03 05:17:50;;;;;;;4.80;2.70;;;;;;;;;;5015037;28;93629;-67
2023/05/03 05:20:16;;;;;;;4.65;2.88;;;;;;;;;;5042766;27;92702;-67
2023/05/03 05:22:44;;;;;;;8.70;2.80;;;;;;;;;;5057092;27;92797;-67
2023/05/03 05:25:10;;;;;;;9.95;2.92;;;;;;;;;;5051083;27;93017;-67
2023/05/03 05:27:37;;;;;;;6.60;2.60;;;;;;;;;;5036162;28;92489;-67
2023/05/03 05:30:03;;;;;;;5.30;2.50;;;;;;;;;;5036530;28;93993;-67
2023/05/03 05:32:30;;;;;;;5.45;2.70;;;;;;;;;;5047634;27;94963;-67
2023/05/03 05:34:56;;;;;;;2.92;2.47;;;;;;;;;;5050554;27;96839;-67
2023/05/03 05:37:23;;;;;;;4.25;2.30;;;;;;;;;;5049243;27;93279;-67
2023/05/03 05:39:50;;;;;;;10.13;3.05;;;;;;;;;;5047456;27;92769;-67
2023/05/03 05:42:16;;;;;;;5.28;2.38;;;;;;;;;;5050250;27;94210;-67
2023/05/03 05:44:42;;;;;;;6.53;2.80;;;;;;;;;;5051904;27;93501;-67
2023/05/03 05:47:09;;;;;;;11.90;2.92;;;;;;;;;;5045397;27;92394;-67
2023/05/03 05:49:35;;;;;;;4.57;2.60;;;;;;;;;;5017860;28;93189;-67
2023/05/03 05:52:02;;;;;;;7.82;2.60;;;;;;;;;;5025362;27;94382;-67
2023/05/03 05:54:28;;;;;;;8.40;2.67;;;;;;;;;;5034786;27;93180;-67
2023/05/03 05:56:56;;;;;;;9.13;3.13;;;;;;;;;;5052335;27;96129;-67
2023/05/03 05:59:22;;;;;;;9.50;2.55;;;;;;;;;;5046686;27;92488;-67
2023/05/03 06:01:49;;;;;;;5.72;2.80;;;;;;;;;;5037989;27;93625;-67
2023/05/03 06:04:15;;;;;;;10.45;2.80;;;;;;;;;;5054714;27;93868;-67
2023/05/03 06:06:41;;;;;;;9.43;2.65;;;;;;;;;;5047672;27;92553;-68
2023/05/03 06:09:08;;;;;;;8.30;2.80;;;;;;;;;;5045671;27;92995;-67
2023/05/03 06:11:49;;;;;;;10.75;3.03;;;;;;;;;;5041294;27;93677;-67
2023/05/03 06:14:16;;;;;;;8.50;2.75;;;;;;;;;;5039799;27;92168;-67
2023/05/03 06:16:42;;;;;;;4.45;2.95;;;;;;;;;;5035779;28;94048;-67
2023/05/03 06:19:08;;;;;;;6.47;2.65;;;;;;;;;;5036332;28;92467;-67
2023/05/03 06:21:35;;;;;;;7.75;2.65;;;;;;;;;;5034388;27;94859;-67
2023/05/03 06:24:01;;;;;;;14.32;3.08;;;;;;;;;;5035394;28;93805;-67
2023/05/03 06:26:28;;;;;;;10.82;3.03;;;;;;;;;;5035730;28;92532;-67
2023/05/03 06:28:54;;;;;;;5.40;2.70;;;;;;;;;;5035812;28;92517;-67
2023/05/03 06:31:20;;;;;;;7.05;2.72;;;;;;;;;;5035744;28;94382;-67
2023/05/03 06:33:47;;;;;;;9.73;2.60;;;;;;;;;;5038639;28;92476;-67
2023/05/03 06:36:13;;;;;;;6.32;2.88;;;;;;;;;;5035592;28;93205;-67
2023/05/03 06:38:39;;;;;;;11.30;2.92;;;;;;;;;;5036072;28;91778;-67
2023/05/03 06:41:06;;;;;;;11.88;2.30;;;;;;;;;;5036024;28;93507;-67
2023/05/03 06:43:32;;;;;;;9.45;2.75;;;;;;;;;;5018397;28;95246;-67
2023/05/03 06:45:58;;;;;;;5.90;2.20;;;;;;;;;;5013664;28;95084;-67
2023/05/03 06:48:25;;;;;;;5.85;2.35;;;;;;;;;;5030106;28;96560;-68
2023/05/03 06:50:51;;;;;;;6.03;2.03;;;;;;;;;;5034986;28;92429;-67
2023/05/03 06:53:17;;;;;;;5.45;2.25;;;;;;;;;;5035442;27;92606;-68
2023/05/03 06:55:46;;;;;;;4.43;2.00;;;;;;;;;;5037671;28;93232;-68
2023/05/03 06:58:13;;;;;;;13.02;2.50;;;;;;;;;;5035483;28;92357;-68
2023/05/03 07:00:39;;;;;;;9.38;2.70;;;;;;;;;;5033240;28;94281;-68
2023/05/03 07:03:06;;;;;;;12.80;2.47;;;;;;;;;;5019962;28;92193;-68
2023/05/03 07:05:33;;;;;;;6.53;2.85;;;;;;;;;;5035041;27;92717;-69
2023/05/03 07:07:59;;;;;;;12.60;3.50;;;;;;;;;;5031179;28;93137;-68
2023/05/03 07:10:29;;;;;;;16.95;9.70;;;;;;;;;;5033520;27;95809;-68
2023/05/03 07:12:56;;;;;;;19.10;11.00;;;;;;;;;;5050081;27;93310;-68
2023/05/03 07:15:23;;;;;;;6.25;4.50;;;;;;;;;;5033050;28;93179;-67
2023/05/03 07:17:49;;;;;;;16.95;2.80;;;;;;;;;;5037049;28;92371;-68
2023/05/03 07:20:16;;;;;;;9.20;2.85;;;;;;;;;;5044225;27;93577;-68
2023/05/03 07:22:43;;;;;;;11.32;2.67;;;;;;;;;;5034892;27;94432;-68
2023/05/03 07:25:11;;;;;;;9.90;3.50;;;;;;;;;;5033362;27;92641;-67
2023/05/03 07:27:37;;;;;;;9.57;3.10;;;;;;;;;;5034465;27;93331;-67
2023/05/03 07:30:04;;;;;;;9.43;2.25;;;;;;;;;;5034402;28;93535;-67
2023/05/03 07:32:31;;;;;;;10.95;2.55;;;;;;;;;;5035005;28;92533;-68
2023/05/03 07:34:57;;;;;;;8.40;2.75;;;;;;;;;;5033472;28;94789;-68
2023/05/03 07:37:25;;;;;;;7.80;2.60;;;;;;;;;;5033770;28;93503;-69
2023/05/03 07:39:52;;;;;;;7.13;2.63;;;;;;;;;;5036336;27;92705;-68
2023/05/03 07:42:19;;;;;;;16.02;2.65;;;;;;;;;;5034376;27;93391;-67
2023/05/03 07:44:45;;;;;;;7.53;3.38;;;;;;;;;;5036011;27;92584;-68
2023/05/03 07:47:11;;;;;;;6.68;2.58;;;;;;;;;;5033329;27;93335;-68
2023/05/03 07:49:38;;;;;;;14.75;2.78;;;;;;;;;;5035329;27;93293;-68
2023/05/03 07:52:04;;;;;;;8.98;2.35;;;;;;;;;;5043439;27;91770;-69
2023/05/03 07:54:30;;;;;;;12.40;2.80;;;;;;;;;;5036065;27;92573;-69
2023/05/03 07:56:57;;;;;;;5.80;2.40;;;;;;;;;;5028717;27;94474;-70
2023/05/03 07:59:23;;;;;;;9.98;2.42;;;;;;;;;;5022481;27;94896;-68
2023/05/03 08:01:49;;;;;;;9.93;2.00;;;;;;;;;;5057607;27;94398;-69
2023/05/03 08:04:16;;;;;;;8.35;2.50;;;;;;;;;;5037803;27;92874;-68
2023/05/03 08:06:43;;;;;;;10.98;3.00;;;;;;;;;;5031422;27;93079;-69
2023/05/03 08:09:10;;;;;;;14.82;2.20;;;;;;;;;;5028205;27;93824;-69
2023/05/03 08:11:36;;;;;;;8.00;1.80;;;;;;;;;;5032248;27;93018;-69
2023/05/03 08:14:03;;;;;;;6.00;1.60;;;;;;;;;;5033124;27;93086;-69
2023/05/03 08:16:29;;;;;;;6.10;1.40;;;;;;;;;;5031405;27;92896;-69
2023/05/03 08:18:56;;;;;;;9.30;1.92;;;;;;;;;;5033560;27;92526;-69
2023/05/03 08:21:23;;;;;;;6.22;1.50;;;;;;;;;;5023548;27;94108;-69
2023/05/03 08:23:50;;;;;;;3.17;1.60;;;;;;;;;;5034719;27;96199;-69
2023/05/03 08:26:16;;;;;;;5.60;1.40;;;;;;;;;;5035907;27;96574;-65
2023/05/03 08:28:42;;;;;;;2.25;1.10;;;;;;;;;;5041395;27;94556;-66
2023/05/03 08:31:09;;;;;;;3.25;1.45;;;;;;;;;;5028080;27;92608;-67
2023/05/03 08:33:35;;;;;;;16.30;2.08;;;;;;;;;;5033460;28;93313;-68
2023/05/03 08:36:02;;;;;;;2.90;1.58;;;;;;;;;;5034241;27;93465;-67
2023/05/03 08:38:28;;;;;;;7.43;1.75;;;;;;;;;;5039360;27;92524;-68
2023/05/03 08:40:57;;;;;;;8.38;1.70;;;;;;;;;;5034037;27;93319;-67
2023/05/03 08:43:26;;;;;;;8.63;1.95;;;;;;;;;;5040164;27;94426;-67
2023/05/03 08:45:52;;;;;;;3.38;1.38;;;;;;;;;;5033877;27;92483;-66
2023/05/03 08:48:19;;;;;;;5.72;1.98;;;;;;;;;;5015760;27;97044;-67
2023/05/03 08:50:46;;;;;;;4.18;1.65;;;;;;;;;;5028878;28;92832;-66
2023/05/03 08:53:12;;;;;;;7.07;1.80;;;;;;;;;;5033593;28;93322;-66
2023/05/03 08:55:39;;;;;;;11.57;1.73;;;;;;;;;;5033201;28;93454;-66
2023/05/03 08:58:09;;;;;;;9.32;1.58;;;;;;;;;;5033854;27;92570;-69
2023/05/03 09:00:35;;;;;;;9.05;1.67;;;;;;;;;;5032928;27;94044;-66
2023/05/03 09:03:02;;;;;;;16.63;2.20;;;;;;;;;;5033890;27;93437;-66
2023/05/03 09:05:30;;;;;;;4.97;2.05;;;;;;;;;;5067252;27;91620;-66
2023/05/03 09:08:01;;;;;;;6.13;1.75;;;;;;;;;;5046514;27;94542;-66
2023/05/03 09:10:27;;;;;;;5.40;1.48;;;;;;;;;;5040760;27;93052;-65
2023/05/03 09:12:57;;;;;;;4.15;1.60;;;;;;;;;;5046899;27;94905;-69
2023/05/03 09:15:23;;;;;;;9.33;1.33;;;;;;;;;;5047677;27;93538;-66
2023/05/03 09:18:05;;;;;;;5.03;1.55;;;;;;;;;;5053877;27;92513;-66
2023/05/03 09:20:35;;;;;;;5.70;1.85;;;;;;;;;;5050840;27;94314;-66
2023/05/03 09:23:02;;;;;;;;;;;;;;;;;;5052908;27;95431;-64
2023/05/03 09:25:41;;;;;;;9.38;2.00;;;;;;;;;;5061235;27;118188;-66
2023/05/03 09:28:08;;;;;;;3.15;1.60;;;;;;;;;;5051980;27;94559;-66
2023/05/03 09:30:34;;;;;;;10.57;1.63;;;;;;;;;;5050911;27;91780;-66
2023/05/03 09:33:00;;;;;;;5.75;1.73;;;;;;;;;;5036685;28;92440;-66
2023/05/03 09:35:27;;;;;;;5.93;1.52;;;;;;;;;;5042640;27;93571;-66
2023/05/03 09:37:54;;;;;;;4.45;2.22;;;;;;;;;;5048945;27;95673;-66
2023/05/03 09:40:20;;;;;;;6.93;1.95;;;;;;;;;;5059530;27;95626;-65
2023/05/03 09:43:08;;;;;;;4.97;1.70;;;;;;;;;;5056473;27;94537;-65
2023/05/03 09:45:35;;;;;;;9.65;1.67;;;;;;;;;;5055407;27;93967;-66
2023/05/03 09:48:03;;;;;;;4.25;1.77;;;;;;;;;;5047148;27;94293;-66
2023/05/03 09:50:33;;;;;;;6.13;2.08;;;;;;;;;;5053080;27;94445;-66
2023/05/03 09:53:03;;;;;;;6.55;1.70;;;;;;;;;;5051037;27;93045;-66
2023/05/03 09:55:30;;;;;;;10.45;1.90;;;;;;;;;;5054165;27;92823;-66
2023/05/03 09:57:57;;;;;;;8.52;1.70;;;;;;;;;;5044794;27;92540;-65
2023/05/03 10:00:24;;;;;;;10.65;2.40;;;;;;;;;;5054850;27;93235;-65
2023/05/03 10:02:53;;;;;;;9.00;2.20;;;;;;;;;;5048686;27;95436;-67
2023/05/03 10:05:20;;;;;;;7.13;1.80;;;;;;;;;;5028240;27;92709;-65
2023/05/03 10:07:49;;;;;;;6.60;1.90;;;;;;;;;;5035615;27;93129;-66
2023/05/03 10:10:16;;;;;;;19.08;2.83;;;;;;;;;;5043293;27;93515;-65
2023/05/03 10:12:44;;;;;;;7.43;2.17;;;;;;;;;;5039137;27;93166;-66
2023/05/03 10:15:12;;;;;;;11.80;2.40;;;;;;;;;;5031926;27;93949;-65
2023/05/03 10:17:39;;;;;;;8.60;2.17;;;;;;;;;;5029219;27;92418;-65
2023/05/03 10:20:11;;;;;;;5.70;2.13;;;;;;;;;;5032959;27;92950;-66
2023/05/03 10:22:56;;;;;;;5.53;1.80;;;;;;;;;;5046074;27;94328;-65
2023/05/03 10:25:22;;;;;;;7.05;1.90;;;;;;;;;;5041402;27;94519;-65
2023/05/03 10:27:50;;;;;;;8.38;2.03;;;;;;;;;;5032120;27;95387;-66
2023/05/03 10:30:27;;;;;;;6.72;2.30;;;;;;;;;;5030429;27;94677;-65
2023/05/03 10:32:54;;;;;;;9.55;2.33;;;;;;;;;;5034432;27;92464;-65
2023/05/03 10:35:24;;;;;;;11.00;2.83;;;;;;;;;;5043051;27;94437;-65
2023/05/03 10:37:51;;;;;;;9.25;2.45;;;;;;;;;;5035948;27;94058;-65
2023/05/03 10:40:17;;;;;;;8.52;2.72;;;;;;;;;;5037039;27;94174;-64
2023/05/03 10:42:45;;;;;;;5.53;1.95;;;;;;;;;;5039973;27;94472;-65
2023/05/03 10:45:27;;;;;;;5.63;2.05;;;;;;;;;;5040079;27;91947;-65
2023/05/03 10:48:12;;;;;;;5.78;2.13;;;;;;;;;;5030801;27;92669;-66
2023/05/03 10:50:38;;;;;;;6.72;2.00;;;;;;;;;;5037241;27;93315;-65
2023/05/03 10:53:05;;;;;;;7.53;2.63;;;;;;;;;;5035093;27;95248;-65
2023/05/03 10:55:31;;;;;;;15.73;2.58;;;;;;;;;;5040793;27;95507;-65
2023/05/03 10:57:59;;;;;;;7.63;2.20;;;;;;;;;;5036109;27;93036;-65
2023/05/03 11:00:31;;;;;;;8.63;2.38;;;;;;;;;;5037899;27;93414;-66
2023/05/03 11:03:10;;;;;;;5.63;1.90;;;;;;;;;;5032798;27;94331;-66
2023/05/03 11:05:37;;;;;;;7.75;2.10;;;;;;;;;;5036729;27;92908;-65
2023/05/03 11:08:10;;;;;;;10.27;2.50;;;;;;;;;;5037397;27;93056;-65
2023/05/03 11:10:36;;;;;;;5.57;2.00;;;;;;;;;;5032450;27;92532;-65
2023/05/03 11:13:02;;;;;;;7.90;2.08;;;;;;;;;;5022913;28;92957;-66
2023/05/03 11:15:29;;;;;;;4.70;2.05;;;;;;;;;;5018341;28;94291;-64
2023/05/03 11:17:56;;;;;;;7.05;2.45;;;;;;;;;;5033927;27;95976;-64
2023/05/03 11:20:22;;;;;;;8.68;2.00;;;;;;;;;;5021725;27;96614;-65
2023/05/03 11:22:49;;;;;;;4.10;2.13;;;;;;;;;;5034577;28;93066;-64
2023/05/03 11:25:15;;;;;;;9.35;2.38;;;;;;;;;;5034302;27;92487;-64
2023/05/03 11:27:41;;;;;;;6.47;2.00;;;;;;;;;;5032187;28;94205;-65
2023/05/03 11:30:09;;;;;;;7.03;2.08;;;;;;;;;;5015289;27;93328;-64
2023/05/03 11:32:38;;;;;;;3.58;1.90;;;;;;;;;;5014560;28;92572;-64
2023/05/03 11:35:08;;;;;;;5.78;2.30;;;;;;;;;;5015200;28;92910;-64
2023/05/03 11:37:34;;;;;;;5.15;1.80;;;;;;;;;;5015305;28;93621;-65
2023/05/03 11:40:01;;;;;;;6.40;2.55;;;;;;;;;;5036529;27;93964;-65
2023/05/03 11:42:27;;;;;;;5.72;2.20;;;;;;;;;;5032405;27;96072;-64
2023/05/03 11:44:53;;;;;;;7.05;2.15;;;;;;;;;;5034189;28;92474;-64
2023/05/03 11:47:20;;;;;;;11.68;2.28;;;;;;;;;;5034257;28;93087;-64
2023/05/03 11:49:56;;;;;;;7.30;2.10;;;;;;;;;;5024253;27;94431;-64
2023/05/03 11:52:24;;;;;;;6.05;1.90;;;;;;;;;;5023471;28;92516;-64
2023/05/03 11:54:50;;;;;;;3.08;2.10;;;;;;;;;;5014355;28;93098;-64
2023/05/03 11:57:17;;;;;;;5.22;2.00;;;;;;;;;;5025874;28;92366;-65
2023/05/03 11:59:44;;;;;;;3.22;1.75;;;;;;;;;;5034779;27;92058;-65
2023/05/03 12:02:11;;;;;;;3.50;1.95;;;;;;;;;;5025143;27;92652;-65
2023/05/03 12:04:42;;;;;;;7.43;2.30;;;;;;;;;;5031422;27;93192;-65
2023/05/03 12:07:12;;;;;;;9.85;2.55;;;;;;;;;;5035464;27;95084;-64
2023/05/03 12:09:43;;;;;;;4.72;2.05;;;;;;;;;;5028829;28;94380;-65
2023/05/03 12:12:25;;;;;;;2.22;2.00;;;;;;;;;;5025523;27;92779;-65
2023/05/03 12:14:59;;;;;;;4.95;2.40;;;;;;;;;;5037650;27;94457;-64
2023/05/03 12:17:36;;;;;;;5.38;2.40;;;;;;;;;;5021871;28;93332;-65
2023/05/03 12:20:18;;;;;;;7.65;2.60;;;;;;;;;;5034995;27;93344;-65
2023/05/03 12:22:49;;;;;;;8.45;2.70;;;;;;;;;;5043197;27;93929;-67
2023/05/03 12:25:16;;;;;;;6.72;2.25;;;;;;;;;;5041260;27;94645;-65
2023/05/03 12:27:46;;;;;;;8.60;2.25;;;;;;;;;;5033091;28;92608;-65
2023/05/03 12:30:32;;;;;;;6.55;2.05;;;;;;;;;;5033100;27;94952;-65
2023/05/03 12:32:59;;;;;;;11.15;3.00;;;;;;;;;;5033490;27;94899;-65
2023/05/03 12:35:30;;;;;;;;;;;;;;;;;;5039588;27;95368;-65
2023/05/03 12:38:00;;;;;;;9.43;3.13;;;;;;;;;;5034782;28;124261;-65
2023/05/03 12:40:28;;;;;;;4.50;2.50;;;;;;;;;;5034215;28;92604;-65
2023/05/03 12:43:00;;;;;;;4.95;2.58;;;;;;;;;;5033400;28;94344;-64
2023/05/03 12:45:29;;;;;;;5.45;2.47;;;;;;;;;;5038378;27;93573;-66
2023/05/03 12:47:59;;;;;;;9.75;3.00;;;;;;;;;;5034990;27;94056;-65
2023/05/03 12:50:25;;;;;;;10.80;3.97;;;;;;;;;;5034309;28;93520;-65
2023/05/03 12:52:57;;;;;;;4.28;2.38;;;;;;;;;;5047215;27;92575;-65
2023/05/03 12:55:23;;;;;;;10.32;2.80;;;;;;;;;;5034906;27;93153;-65
2023/05/03 12:57:51;;;;;;;5.85;2.40;;;;;;;;;;5018601;28;96045;-65
2023/05/03 13:00:37;;;;;;;5.47;2.40;;;;;;;;;;5015688;28;92435;-65
2023/05/03 13:03:23;;;;;;;5.50;2.58;;;;;;;;;;5031561;28;95248;-65
2023/05/03 13:05:50;;;;;;;4.82;2.38;;;;;;;;;;5032719;27;93903;-65
2023/05/03 13:08:17;;;;;;;6.40;2.50;;;;;;;;;;5040048;28;92714;-65
2023/05/03 13:10:48;;;;;;;9.77;2.50;;;;;;;;;;5035331;28;93524;-65
2023/05/03 13:13:15;;;;;;;9.25;2.53;;;;;;;;;;5023340;28;92452;-65
2023/05/03 13:15:42;;;;;;;7.30;2.60;;;;;;;;;;5037228;28;91820;-65
2023/05/03 13:18:09;;;;;;;12.32;2.90;;;;;;;;;;5032704;27;93589;-65
2023/05/03 13:20:36;;;;;;;14.98;2.15;;;;;;;;;;5041332;27;92583;-65
2023/05/03 13:23:03;;;;;;;4.47;2.20;;;;;;;;;;5031491;27;95029;-65
2023/05/03 13:25:29;;;;;;;3.70;2.10;;;;;;;;;;5031450;27;93425;-65
2023/05/03 13:27:56;;;;;;;7.55;2.42;;;;;;;;;;5037094;28;92892;-65
2023/05/03 13:30:22;;;;;;;4.45;2.30;;;;;;;;;;5039578;28;93345;-65
2023/05/03 13:32:51;;;;;;;6.35;2.53;;;;;;;;;;5034320;27;94130;-65
2023/05/03 13:35:18;;;;;;;2.38;1.88;;;;;;;;;;5036888;28;93590;-65
2023/05/03 13:37:45;;;;;;;7.20;2.65;;;;;;;;;;5036507;28;93683;-64
2023/05/03 13:40:13;;;;;;;5.75;2.50;;;;;;;;;;5036730;28;91663;-64
2023/05/03 13:42:39;;;;;;;4.97;2.15;;;;;;;;;;5040455;27;92510;-65
2023/05/03 13:45:06;;;;;;;8.70;2.20;;;;;;;;;;5036288;27;93579;-65
2023/05/03 13:47:33;;;;;;;5.45;2.15;;;;;;;;;;5034485;28;95220;-64
2023/05/03 13:50:20;;;;;;;14.80;3.00;;;;;;;;;;5017861;28;98052;-65
2023/05/03 13:52:46;;;;;;;5.43;2.80;;;;;;;;;;5034177;28;94044;-64
2023/05/03 13:55:12;;;;;;;6.60;2.33;;;;;;;;;;5050458;27;94310;-64
2023/05/03 13:57:39;;;;;;;8.55;3.10;;;;;;;;;;5036202;27;93396;-64
2023/05/03 14:00:07;;;;;;;6.88;2.58;;;;;;;;;;5038862;27;93844;-65
2023/05/03 14:02:33;;;;;;;6.28;2.40;;;;;;;;;;5039093;27;93214;-65
2023/05/03 14:05:00;;;;;;;11.10;3.03;;;;;;;;;;5026560;27;92717;-65
2023/05/03 14:07:26;;;;;;;11.95;2.80;;;;;;;;;;5034775;27;92471;-64
2023/05/03 14:09:52;;;;;;;9.10;3.33;;;;;;;;;;5038437;27;94380;-65
2023/05/03 14:12:19;;;;;;;5.22;2.67;;;;;;;;;;5030303;27;96767;-64
2023/05/03 14:14:45;;;;;;;9.05;3.08;;;;;;;;;;5032063;27;92495;-65
2023/05/03 14:17:11;;;;;;;4.35;2.35;;;;;;;;;;5029739;27;94289;-66
2023/05/03 14:19:38;;;;;;;8.32;2.80;;;;;;;;;;5031700;27;92679;-65
2023/05/03 14:22:04;;;;;;;6.13;2.45;;;;;;;;;;5034989;27;94163;-65
2023/05/03 14:24:31;;;;;;;5.25;2.10;;;;;;;;;;5016749;27;93351;-65
2023/05/03 14:26:58;;;;;;;4.70;2.65;;;;;;;;;;5032781;27;92672;-65
2023/05/03 14:29:25;;;;;;;11.05;3.00;;;;;;;;;;5044673;27;93187;-64
2023/05/03 14:31:51;;;;;;;6.45;2.95;;;;;;;;;;5042977;27;94245;-64
2023/05/03 14:34:17;;;;;;;4.72;2.70;;;;;;;;;;5032736;27;92735;-64
2023/05/03 14:36:44;;;;;;;10.13;2.60;;;;;;;;;;5046800;27;94878;-64
2023/05/03 14:39:13;;;;;;;8.73;3.00;;;;;;;;;;5041704;27;92637;-64
2023/05/03 14:41:39;;;;;;;8.82;2.88;;;;;;;;;;5038018;27;93135;-65
2023/05/03 14:44:10;;;;;;;4.68;2.50;;;;;;;;;;5034007;27;94660;-65